Terminal Aerodrome Forecast
Issued by NWS Charleston, WV

Current Version | Previous Version | Graphics & Text | Print | Product List | Glossary On
Versions: 1 2 3 4 5 6 7 8 9 10 11 12 13 14 15 16 17 18 19 20 21 22 23
000
FTUS41 KRLX 011733
TAFBKW
TAF
KBKW 011733Z 0118/0218 30008G12KT P6SM SCT045
     FM020100 32004KT P6SM SKC
     FM020900 00000KT 6SM BR SKC
     FM021200 25003KT P6SM SKC
     FM021500 28006KT P6SM SCT045=

USA.gov is the U.S. government's official web portal to all federal, state and local government web resources and services.